createdAt,value
2023-05-14T00:01:07.659Z,6.85
2023-05-14T00:03:35.078Z,6.82
2023-05-14T00:06:02.683Z,6.80
2023-05-14T00:08:29.428Z,6.77
2023-05-14T00:10:56.262Z,6.77
2023-05-14T00:13:25.457Z,6.78
2023-05-14T00:15:52.356Z,6.78
2023-05-14T00:18:19.252Z,6.80
2023-05-14T00:20:45.985Z,6.81
2023-05-14T00:23:12.930Z,6.83
2023-05-14T00:25:39.879Z,6.86
2023-05-14T00:28:06.817Z,6.88
2023-05-14T00:30:34.475Z,6.90
2023-05-14T00:33:01.460Z,6.90
2023-05-14T00:35:28.497Z,6.90
2023-05-14T00:37:55.421Z,6.89
2023-05-14T00:40:26.039Z,6.88
2023-05-14T00:42:54.429Z,6.86
2023-05-14T00:45:21.787Z,6.85
2023-05-14T00:47:49.181Z,6.86
2023-05-14T00:50:17.410Z,6.88
2023-05-14T00:52:44.566Z,6.89
2023-05-14T00:55:15.955Z,6.90
2023-05-14T00:57:43.366Z,6.89
2023-05-14T01:00:10.613Z,6.85
2023-05-14T01:02:38.053Z,6.77
2023-05-14T01:05:06.313Z,6.68
2023-05-14T01:07:52.860Z,6.57
2023-05-14T01:10:28.296Z,6.42
2023-05-14T01:13:04.360Z,6.30
2023-05-14T01:15:34.678Z,6.21
2023-05-14T01:18:06.109Z,6.13
2023-05-14T01:20:33.191Z,6.06
2023-05-14T01:23:00.122Z,6.01
2023-05-14T01:25:27.280Z,5.96
2023-05-14T01:27:54.009Z,5.91
2023-05-14T01:30:31.816Z,5.87
2023-05-14T01:33:02.796Z,5.82
2023-05-14T01:35:30.509Z,5.79
2023-05-14T01:38:01.077Z,5.75
2023-05-14T01:40:29.310Z,5.74
2023-05-14T01:42:57.022Z,5.74
2023-05-14T01:45:24.226Z,5.72
2023-05-14T01:47:52.202Z,5.70
2023-05-14T01:50:19.236Z,5.70
2023-05-14T01:52:47.719Z,5.72
2023-05-14T01:55:15.291Z,5.74
2023-05-14T01:57:42.118Z,5.76
2023-05-14T02:00:09.479Z,5.79
2023-05-14T02:02:42.337Z,5.85
2023-05-14T02:05:11.148Z,5.90
2023-05-14T02:07:38.806Z,5.91
2023-05-14T02:10:06.584Z,5.92
2023-05-14T02:12:33.943Z,5.97
2023-05-14T02:15:00.970Z,6.01
2023-05-14T02:17:28.182Z,6.02
2023-05-14T02:19:55.177Z,6.01
2023-05-14T02:22:22.025Z,6.05
2023-05-14T02:24:50.904Z,6.06
2023-05-14T02:27:18.288Z,6.06
2023-05-14T02:29:45.209Z,6.08
2023-05-14T02:32:12.112Z,6.10
2023-05-14T02:34:39.413Z,6.12
2023-05-14T02:37:06.558Z,6.14
2023-05-14T02:39:33.615Z,6.16
2023-05-14T02:42:00.747Z,6.21
2023-05-14T02:44:27.792Z,6.22
2023-05-14T02:46:54.769Z,6.18
2023-05-14T02:49:21.892Z,6.17
2023-05-14T02:51:48.727Z,6.14
2023-05-14T02:54:16.312Z,6.09
2023-05-14T02:56:43.344Z,6.02
2023-05-14T02:59:10.292Z,5.97
2023-05-14T03:01:37.536Z,5.99
2023-05-14T03:04:05.003Z,6.04
2023-05-14T03:06:32.045Z,6.07
2023-05-14T03:08:58.882Z,6.25
2023-05-14T03:11:25.943Z,6.58
2023-05-14T03:13:52.769Z,6.97
2023-05-14T03:16:19.648Z,7.34
2023-05-14T03:18:46.483Z,7.68
2023-05-14T03:21:13.810Z,8.04
2023-05-14T03:23:40.652Z,8.39
2023-05-14T03:26:07.815Z,8.75
2023-05-14T03:28:34.850Z,9.08
2023-05-14T03:31:01.892Z,9.47
2023-05-14T03:33:30.676Z,9.91
2023-05-14T03:35:57.753Z,10.24
2023-05-14T03:38:24.571Z,10.50
2023-05-14T03:40:51.410Z,10.77
2023-05-14T03:43:18.376Z,11.15
2023-05-14T03:45:45.733Z,11.57
2023-05-14T03:48:12.625Z,11.88
2023-05-14T03:50:39.708Z,12.26
2023-05-14T03:53:07.777Z,12.68
2023-05-14T03:55:34.619Z,13.12
2023-05-14T03:58:02.189Z,13.56
2023-05-14T04:00:29.233Z,13.94
2023-05-14T04:02:56.232Z,14.10
2023-05-14T04:05:23.425Z,14.49
2023-05-14T04:07:52.006Z,14.84
2023-05-14T04:10:20.382Z,15.12
2023-05-14T04:12:47.225Z,15.45
2023-05-14T04:15:14.283Z,15.91
2023-05-14T04:17:41.367Z,15.65
2023-05-14T04:20:09.182Z,16.03
2023-05-14T04:22:36.031Z,16.27
2023-05-14T04:25:02.871Z,16.48
2023-05-14T04:27:29.710Z,16.78
2023-05-14T04:29:56.552Z,17.12
2023-05-14T04:32:24.138Z,17.53
2023-05-14T04:34:51.468Z,17.55
2023-05-14T04:37:18.205Z,18.11
2023-05-14T04:39:45.045Z,18.41
2023-05-14T04:42:12.488Z,18.79
2023-05-14T04:44:39.550Z,19.13
2023-05-14T04:47:06.594Z,19.41
2023-05-14T04:49:33.455Z,19.76
2023-05-14T04:52:01.210Z,20.30
2023-05-14T04:54:28.204Z,20.69
2023-05-14T04:56:55.398Z,20.78
2023-05-14T04:59:22.243Z,21.62
2023-05-14T05:01:49.459Z,21.35
2023-05-14T05:04:16.574Z,21.91
2023-05-14T05:06:43.484Z,21.55
2023-05-14T05:09:10.336Z,21.99
2023-05-14T05:11:38.404Z,22.44
2023-05-14T05:14:05.145Z,23.07
2023-05-14T05:16:32.102Z,23.43
2023-05-14T05:18:59.048Z,24.09
2023-05-14T05:21:26.098Z,24.68
2023-05-14T05:23:52.923Z,25.19
2023-05-14T05:26:22.040Z,25.09
2023-05-14T05:28:49.438Z,25.77
2023-05-14T05:31:18.253Z,26.17
2023-05-14T05:33:47.781Z,26.40
2023-05-14T05:36:14.812Z,26.58
2023-05-14T05:38:41.656Z,26.78
2023-05-14T05:41:08.503Z,26.87
2023-05-14T05:43:35.341Z,27.09
2023-05-14T05:46:02.238Z,27.24
2023-05-14T05:48:29.226Z,28.00
2023-05-14T05:50:56.077Z,27.79
2023-05-14T05:53:23.013Z,27.95
2023-05-14T05:55:51.187Z,28.44
2023-05-14T05:58:18.856Z,28.24
2023-05-14T06:00:46.815Z,28.21
2023-05-14T06:03:14.157Z,28.19
2023-05-14T06:05:41.065Z,28.51
2023-05-14T06:08:08.064Z,28.79
2023-05-14T06:10:35.826Z,29.06
2023-05-14T06:13:02.772Z,29.10
2023-05-14T06:15:29.921Z,28.59
2023-05-14T06:17:57.138Z,28.38
2023-05-14T06:20:24.215Z,28.36
2023-05-14T06:22:51.469Z,28.45
2023-05-14T06:25:18.734Z,28.60
2023-05-14T06:27:45.579Z,28.42
2023-05-14T06:30:13.151Z,28.23
2023-05-14T06:32:40.140Z,28.49
2023-05-14T06:35:07.834Z,28.13
2023-05-14T06:37:34.986Z,27.66
2023-05-14T06:40:01.824Z,27.59
2023-05-14T06:42:28.667Z,27.48
2023-05-14T06:44:55.935Z,26.64
2023-05-14T06:47:22.816Z,26.11
2023-05-14T06:49:49.883Z,26.33
2023-05-14T06:52:17.539Z,26.50
2023-05-14T06:54:44.519Z,26.34
2023-05-14T06:57:11.260Z,25.96
2023-05-14T06:59:38.010Z,25.43
2023-05-14T07:02:05.599Z,25.50
2023-05-14T07:04:33.202Z,25.37
2023-05-14T07:07:00.315Z,25.74
2023-05-14T07:09:27.208Z,25.93
2023-05-14T07:11:54.215Z,25.74
2023-05-14T07:14:21.409Z,25.63
2023-05-14T07:16:48.265Z,25.46
2023-05-14T07:19:15.657Z,25.03
2023-05-14T07:21:42.568Z,25.47
2023-05-14T07:24:09.492Z,25.35
2023-05-14T07:26:36.338Z,24.83
2023-05-14T07:29:03.190Z,25.07
2023-05-14T07:31:30.050Z,24.70
2023-05-14T07:33:57.369Z,24.85
2023-05-14T07:36:24.828Z,25.34
2023-05-14T07:38:52.079Z,25.65
2023-05-14T07:41:18.819Z,25.69
2023-05-14T07:43:45.666Z,25.60
2023-05-14T07:46:12.528Z,25.69
2023-05-14T07:48:39.570Z,25.39
2023-05-14T07:51:06.509Z,25.16
2023-05-14T07:53:33.441Z,25.18
2023-05-14T07:56:00.695Z,25.44
2023-05-14T07:58:28.459Z,25.72
2023-05-14T08:00:56.127Z,25.69
2023-05-14T08:03:23.133Z,25.95
2023-05-14T08:05:51.954Z,25.90
2023-05-14T08:08:18.996Z,25.95
2023-05-14T08:10:45.869Z,24.73
2023-05-14T08:13:12.689Z,24.40
2023-05-14T08:15:40.654Z,24.67
2023-05-14T08:18:07.718Z,24.96
2023-05-14T08:20:34.954Z,24.99
2023-05-14T08:23:01.910Z,24.81
2023-05-14T08:25:29.256Z,25.13
2023-05-14T08:27:56.302Z,25.35
2023-05-14T08:30:23.562Z,25.41
2023-05-14T08:32:51.045Z,25.72
2023-05-14T08:35:18.673Z,25.55
2023-05-14T08:37:45.617Z,25.42
2023-05-14T08:40:12.775Z,25.86
2023-05-14T08:42:44.218Z,26.19
2023-05-14T08:45:17.713Z,26.06
2023-05-14T08:47:52.484Z,25.73
2023-05-14T08:50:22.725Z,25.50
2023-05-14T08:52:51.151Z,25.70
2023-05-14T08:55:18.598Z,25.87
2023-05-14T08:57:46.052Z,25.82
2023-05-14T09:00:15.004Z,25.92
2023-05-14T09:02:44.445Z,25.69
2023-05-14T09:05:12.010Z,25.54
2023-05-14T09:07:38.967Z,25.23
2023-05-14T09:10:08.372Z,24.91
2023-05-14T09:12:35.399Z,24.91
2023-05-14T09:15:03.515Z,24.85
2023-05-14T09:17:30.652Z,24.72
2023-05-14T09:19:58.188Z,24.85
2023-05-14T09:22:31.473Z,25.07
2023-05-14T09:25:06.120Z,25.23
2023-05-14T09:27:33.564Z,24.80
2023-05-14T09:30:09.245Z,24.90
2023-05-14T09:32:37.802Z,24.71
2023-05-14T09:35:22.964Z,24.71
2023-05-14T09:37:52.488Z,24.79
2023-05-14T09:40:21.720Z,24.91
2023-05-14T09:42:49.426Z,24.94
2023-05-14T09:45:17.012Z,24.86
2023-05-14T09:47:44.502Z,24.66
2023-05-14T09:50:11.793Z,24.66
2023-05-14T09:52:38.856Z,24.51
2023-05-14T09:55:06.559Z,24.40
2023-05-14T09:57:34.099Z,24.65
2023-05-14T10:00:00.826Z,24.76
2023-05-14T10:02:37.028Z,24.68
2023-05-14T10:05:06.433Z,24.78
2023-05-14T10:07:38.682Z,24.86
2023-05-14T10:10:08.474Z,24.90
2023-05-14T10:12:40.107Z,25.10
2023-05-14T10:15:18.822Z,24.96
2023-05-14T10:17:49.711Z,24.56
2023-05-14T10:20:17.219Z,24.37
2023-05-14T10:22:44.178Z,24.44
2023-05-14T10:25:11.528Z,24.62
2023-05-14T10:27:39.279Z,24.28
2023-05-14T10:30:13.946Z,24.17
2023-05-14T10:32:41.537Z,24.36
2023-05-14T10:35:28.891Z,24.57
2023-05-14T10:37:56.350Z,24.33
2023-05-14T10:40:24.541Z,24.29
2023-05-14T10:42:52.902Z,24.23
2023-05-14T10:45:19.738Z,24.27
2023-05-14T10:47:46.963Z,24.26
2023-05-14T10:50:15.479Z,24.39
2023-05-14T10:52:44.462Z,24.57
2023-05-14T10:55:16.378Z,24.47
2023-05-14T10:57:45.478Z,24.46
2023-05-14T11:00:14.665Z,24.54
2023-05-14T11:02:43.950Z,24.64
2023-05-14T11:05:16.668Z,24.44
2023-05-14T11:07:48.413Z,24.42
2023-05-14T11:10:18.229Z,24.50
2023-05-14T11:12:50.478Z,24.43
2023-05-14T11:15:19.602Z,24.47
2023-05-14T11:17:48.468Z,24.40
2023-05-14T11:20:18.945Z,24.36
2023-05-14T11:22:48.599Z,24.39
2023-05-14T11:25:16.450Z,24.32
2023-05-14T11:27:44.676Z,24.11
2023-05-14T11:30:13.919Z,24.15
2023-05-14T11:32:41.390Z,24.21
2023-05-14T11:35:08.813Z,24.10
2023-05-14T11:37:35.771Z,24.24
2023-05-14T11:40:09.377Z,24.21
2023-05-14T11:42:36.728Z,24.06
2023-05-14T11:45:04.701Z,23.88
2023-05-14T11:47:31.538Z,23.87
2023-05-14T11:50:00.302Z,23.89
2023-05-14T11:52:27.181Z,23.91
2023-05-14T11:54:54.032Z,23.97
2023-05-14T11:57:22.180Z,24.00
2023-05-14T11:59:58.187Z,23.94
2023-05-14T12:02:29.956Z,23.92
2023-05-14T12:04:57.306Z,23.86
2023-05-14T12:07:29.027Z,23.73
2023-05-14T12:10:00.962Z,23.64
2023-05-14T12:12:27.716Z,23.61
2023-05-14T12:14:54.636Z,23.65
2023-05-14T12:17:22.962Z,23.64
2023-05-14T12:19:53.443Z,23.45
2023-05-14T12:22:22.532Z,23.36
2023-05-14T12:24:57.165Z,23.23
2023-05-14T12:27:29.139Z,23.11
2023-05-14T12:30:19.851Z,23.07
2023-05-14T12:32:51.018Z,22.96
2023-05-14T12:35:18.561Z,22.89
2023-05-14T12:37:45.602Z,22.84
2023-05-14T12:40:13.526Z,22.85
2023-05-14T12:42:41.192Z,22.87
2023-05-14T12:45:09.170Z,22.75
2023-05-14T12:47:37.188Z,22.73
2023-05-14T12:50:05.437Z,22.88
2023-05-14T12:52:38.487Z,22.92
2023-05-14T12:55:09.738Z,22.64
2023-05-14T12:57:38.140Z,22.63
2023-05-14T13:00:07.664Z,22.66
2023-05-14T13:02:42.863Z,22.49
2023-05-14T13:05:11.497Z,22.40
2023-05-14T13:07:38.974Z,22.36
2023-05-14T13:10:06.477Z,22.47
2023-05-14T13:12:33.724Z,22.51
2023-05-14T13:15:00.481Z,22.50
2023-05-14T13:17:27.683Z,22.39
2023-05-14T13:19:54.566Z,22.39
2023-05-14T13:22:21.404Z,22.48
2023-05-14T13:24:48.243Z,22.57
2023-05-14T13:27:15.206Z,22.57
2023-05-14T13:29:42.033Z,22.56
2023-05-14T13:32:09.079Z,22.52
2023-05-14T13:34:36.021Z,22.49
2023-05-14T13:37:03.375Z,22.55
2023-05-14T13:39:30.425Z,22.58
2023-05-14T13:41:57.366Z,22.58
2023-05-14T13:44:24.384Z,22.47
2023-05-14T13:46:51.948Z,22.41
2023-05-14T13:49:19.023Z,22.37
2023-05-14T13:51:45.764Z,22.23
2023-05-14T13:54:12.714Z,22.19
2023-05-14T13:56:39.785Z,22.21
2023-05-14T13:59:06.901Z,22.25
2023-05-14T14:01:33.802Z,22.28
2023-05-14T14:04:00.692Z,22.36
2023-05-14T14:06:27.493Z,22.37
2023-05-14T14:08:54.454Z,22.40
2023-05-14T14:11:21.538Z,22.38
2023-05-14T14:13:48.795Z,22.40
2023-05-14T14:16:15.870Z,22.45
2023-05-14T14:18:42.928Z,22.51
2023-05-14T14:21:10.123Z,22.51
2023-05-14T14:23:37.040Z,22.49
2023-05-14T14:26:03.993Z,22.40
2023-05-14T14:28:32.191Z,22.38
2023-05-14T14:30:59.037Z,22.32
2023-05-14T14:33:26.618Z,22.36
2023-05-14T14:35:53.573Z,22.37
2023-05-14T14:38:20.579Z,22.35
2023-05-14T14:40:47.630Z,22.31
2023-05-14T14:43:14.384Z,22.28
2023-05-14T14:45:42.348Z,22.26
2023-05-14T14:48:33.452Z,22.25
2023-05-14T14:51:01.118Z,22.21
2023-05-14T14:53:27.951Z,22.16
2023-05-14T14:55:55.131Z,22.08
2023-05-14T14:58:22.568Z,22.00
2023-05-14T15:00:52.223Z,21.92
2023-05-14T15:03:19.735Z,21.84
2023-05-14T15:05:47.386Z,21.77
2023-05-14T15:08:15.151Z,21.67
2023-05-14T15:10:42.217Z,21.59
2023-05-14T15:13:09.141Z,21.57
2023-05-14T15:15:36.937Z,21.55
2023-05-14T15:18:04.741Z,21.53
2023-05-14T15:20:31.725Z,21.52
2023-05-14T15:22:58.561Z,21.52
2023-05-14T15:25:26.723Z,21.56
2023-05-14T15:27:53.900Z,21.58
2023-05-14T15:30:20.741Z,21.62
2023-05-14T15:32:47.624Z,21.63
2023-05-14T15:35:14.820Z,21.65
2023-05-14T15:37:44.020Z,21.64
2023-05-14T15:40:11.802Z,21.65
2023-05-14T15:42:43.438Z,21.61
2023-05-14T15:45:12.754Z,21.58
2023-05-14T15:47:43.687Z,21.54
2023-05-14T15:50:11.335Z,21.50
2023-05-14T15:52:39.200Z,21.46
2023-05-14T15:55:06.866Z,21.43
2023-05-14T15:57:34.542Z,21.38
2023-05-14T16:00:03.634Z,21.41
2023-05-14T16:02:32.801Z,21.39
2023-05-14T16:04:59.654Z,21.35
2023-05-14T16:07:26.604Z,21.30
2023-05-14T16:09:53.342Z,21.27
2023-05-14T16:12:20.386Z,21.22
2023-05-14T16:14:47.138Z,21.14
2023-05-14T16:17:14.097Z,21.06
2023-05-14T16:19:41.124Z,21.00
2023-05-14T16:22:08.369Z,20.91
2023-05-14T16:24:35.829Z,20.81
2023-05-14T16:27:03.283Z,20.72
2023-05-14T16:29:30.744Z,20.61
2023-05-14T16:31:58.010Z,20.50
2023-05-14T16:34:24.938Z,20.39
2023-05-14T16:36:51.692Z,20.29
2023-05-14T16:39:18.628Z,20.22
2023-05-14T16:41:45.661Z,20.12
2023-05-14T16:44:12.521Z,20.02
2023-05-14T16:46:39.718Z,19.92
2023-05-14T16:49:06.602Z,19.82
2023-05-14T16:51:33.552Z,19.71
2023-05-14T16:54:00.509Z,19.60
2023-05-14T16:56:27.540Z,19.48
2023-05-14T16:58:54.472Z,19.34
2023-05-14T17:01:21.350Z,19.21
2023-05-14T17:03:48.162Z,19.11
2023-05-14T17:06:14.903Z,19.04
2023-05-14T17:08:41.844Z,18.94
2023-05-14T17:11:08.694Z,18.84
2023-05-14T17:13:54.067Z,18.70
2023-05-14T17:16:21.482Z,18.57
2023-05-14T17:18:57.113Z,18.44
2023-05-14T17:21:24.111Z,18.34
2023-05-14T17:23:51.171Z,18.26
2023-05-14T17:26:18.003Z,18.16
2023-05-14T17:28:44.956Z,18.05
2023-05-14T17:31:11.781Z,17.96
2023-05-14T17:33:38.890Z,17.83
2023-05-14T17:36:06.597Z,17.69
2023-05-14T17:38:34.157Z,17.54
2023-05-14T17:41:00.968Z,17.38
2023-05-14T17:43:29.076Z,17.21
2023-05-14T17:45:56.010Z,17.03
2023-05-14T17:48:23.571Z,16.85
2023-05-14T17:50:51.466Z,16.67
2023-05-14T17:53:18.498Z,16.51
2023-05-14T17:55:45.548Z,16.36
2023-05-14T17:58:14.928Z,16.23
2023-05-14T18:00:42.971Z,16.10
2023-05-14T18:03:10.121Z,15.95
2023-05-14T18:05:37.188Z,15.80
2023-05-14T18:08:04.469Z,15.66
2023-05-14T18:10:31.425Z,15.52
2023-05-14T18:12:58.687Z,15.38
2023-05-14T18:15:26.721Z,15.26
2023-05-14T18:17:53.831Z,15.15
2023-05-14T18:20:20.734Z,15.06
2023-05-14T18:22:47.991Z,14.97
2023-05-14T18:25:15.242Z,14.88
2023-05-14T18:27:45.209Z,14.78
2023-05-14T18:30:14.249Z,14.69
2023-05-14T18:32:43.386Z,14.60
2023-05-14T18:35:11.126Z,14.49
2023-05-14T18:37:38.156Z,14.41
2023-05-14T18:40:06.448Z,14.32
2023-05-14T18:42:34.109Z,14.25
2023-05-14T18:45:01.233Z,14.18
2023-05-14T18:47:28.951Z,14.12
2023-05-14T18:49:58.629Z,14.06
2023-05-14T18:52:26.291Z,14.00
2023-05-14T18:54:54.525Z,13.95
2023-05-14T18:57:21.917Z,13.90
2023-05-14T18:59:48.749Z,13.86
2023-05-14T19:02:15.880Z,13.82
2023-05-14T19:04:51.611Z,13.74
2023-05-14T19:07:20.340Z,13.67
2023-05-14T19:09:47.479Z,13.61
2023-05-14T19:12:14.945Z,13.56
2023-05-14T19:14:41.989Z,13.55
2023-05-14T19:17:08.933Z,13.54
2023-05-14T19:19:36.074Z,13.52
2023-05-14T19:22:02.917Z,13.49
2023-05-14T19:24:29.865Z,13.46
2023-05-14T19:26:56.607Z,13.43
2023-05-14T19:29:23.544Z,13.43
2023-05-14T19:31:50.637Z,13.44
2023-05-14T19:34:17.481Z,13.46
2023-05-14T19:36:44.384Z,13.57
2023-05-14T19:39:11.233Z,13.65
2023-05-14T19:41:38.067Z,13.69
2023-05-14T19:44:05.015Z,13.72
2023-05-14T19:46:32.002Z,13.72
2023-05-14T19:48:58.902Z,13.72
2023-05-14T19:51:25.844Z,13.73
2023-05-14T19:53:52.684Z,13.78
2023-05-14T19:56:19.536Z,13.85
2023-05-14T19:58:46.472Z,13.92
2023-05-14T20:01:13.944Z,13.99
2023-05-14T20:03:40.876Z,14.00
2023-05-14T20:06:07.930Z,13.98
2023-05-14T20:08:35.080Z,13.94
2023-05-14T20:11:02.739Z,13.91
2023-05-14T20:13:31.524Z,13.85
2023-05-14T20:15:59.292Z,13.78
2023-05-14T20:18:27.140Z,13.72
2023-05-14T20:20:54.408Z,13.68
2023-05-14T20:23:21.355Z,13.64
2023-05-14T20:25:48.199Z,13.61
2023-05-14T20:28:15.030Z,13.57
2023-05-14T20:30:41.891Z,13.52
2023-05-14T20:33:08.803Z,13.50
2023-05-14T20:35:35.764Z,13.47
2023-05-14T20:38:03.324Z,13.45
2023-05-14T20:40:32.137Z,13.44
2023-05-14T20:42:59.261Z,13.42
2023-05-14T20:45:26.365Z,13.38
2023-05-14T20:47:53.492Z,13.37
2023-05-14T20:50:22.077Z,13.39
2023-05-14T20:52:48.886Z,13.41
2023-05-14T20:55:16.064Z,13.41
2023-05-14T20:57:43.616Z,13.42
2023-05-14T21:00:11.456Z,13.42
2023-05-14T21:02:38.477Z,13.41
2023-05-14T21:05:06.575Z,13.37
2023-05-14T21:07:33.417Z,13.32
2023-05-14T21:10:01.390Z,13.28
2023-05-14T21:12:28.225Z,13.26
2023-05-14T21:14:55.076Z,13.25
2023-05-14T21:17:21.966Z,13.25
2023-05-14T21:19:48.765Z,13.28
2023-05-14T21:22:15.499Z,13.41
2023-05-14T21:24:42.342Z,13.62
2023-05-14T21:27:09.180Z,13.84
2023-05-14T21:29:35.922Z,14.00
2023-05-14T21:32:02.809Z,14.14
2023-05-14T21:34:31.214Z,14.27
2023-05-14T21:36:58.906Z,14.39
2023-05-14T21:39:25.760Z,14.51
2023-05-14T21:41:52.584Z,14.61
2023-05-14T21:44:19.533Z,14.70
2023-05-14T21:46:46.989Z,14.76
2023-05-14T21:49:13.828Z,14.83
2023-05-14T21:51:40.673Z,14.90
2023-05-14T21:54:07.629Z,14.96
2023-05-14T21:56:35.380Z,15.00
2023-05-14T21:59:02.530Z,15.02
2023-05-14T22:01:29.498Z,15.00
2023-05-14T22:03:57.925Z,15.00
2023-05-14T22:06:25.942Z,15.01
2023-05-14T22:08:53.074Z,15.00
2023-05-14T22:11:20.124Z,14.98
2023-05-14T22:13:47.164Z,14.99
2023-05-14T22:16:14.401Z,14.99
2023-05-14T22:18:42.100Z,15.00
2023-05-14T22:21:09.124Z,14.99
2023-05-14T22:23:36.276Z,14.98
2023-05-14T22:26:04.045Z,14.95
2023-05-14T22:28:33.573Z,14.94
2023-05-14T22:31:00.441Z,14.94
2023-05-14T22:33:27.339Z,14.93
2023-05-14T22:35:54.072Z,14.95
2023-05-14T22:38:20.816Z,14.95
2023-05-14T22:40:47.655Z,14.94
2023-05-14T22:43:14.495Z,14.93
2023-05-14T22:45:41.340Z,14.90
2023-05-14T22:48:08.530Z,14.84
2023-05-14T22:50:36.664Z,14.77
2023-05-14T22:53:03.511Z,14.69
2023-05-14T22:55:30.448Z,14.60
2023-05-14T22:57:57.194Z,14.52
2023-05-14T23:00:24.853Z,14.42
2023-05-14T23:02:51.837Z,14.35
2023-05-14T23:05:18.946Z,14.33
2023-05-14T23:07:45.790Z,14.32
2023-05-14T23:10:12.633Z,14.29
2023-05-14T23:12:39.472Z,14.25
2023-05-14T23:15:06.828Z,14.22
2023-05-14T23:17:33.716Z,14.16
2023-05-14T23:20:00.627Z,14.09
2023-05-14T23:22:27.456Z,14.01
2023-05-14T23:24:54.297Z,13.96
2023-05-14T23:27:21.656Z,13.91
2023-05-14T23:29:48.492Z,13.88
2023-05-14T23:32:15.315Z,13.83
2023-05-14T23:34:42.281Z,13.76
2023-05-14T23:37:09.223Z,13.67
2023-05-14T23:39:36.270Z,13.61
2023-05-14T23:42:03.213Z,13.51
2023-05-14T23:44:30.159Z,13.42
2023-05-14T23:46:57.173Z,13.33
2023-05-14T23:49:24.054Z,13.23
2023-05-14T23:51:50.820Z,13.13
2023-05-14T23:54:17.517Z,13.01
2023-05-14T23:56:44.372Z,12.87
2023-05-14T23:59:11.516Z,12.76
